sensor_id;sensor_type;location;lat;lon;timestamp;P1;durP1;ratioP1;P2;durP2;ratioP2
12441;SDS011;6285;48.804;9.220;2024-01-27T00:02:53;8.48;;;3.72;;
12441;SDS011;6285;48.804;9.220;2024-01-27T00:05:40;7.93;;;3.80;;
12441;SDS011;6285;48.804;9.220;2024-01-27T00:15:01;11.15;;;3.92;;
12441;SDS011;6285;48.804;9.220;2024-01-27T00:19:52;8.00;;;4.15;;
12441;SDS011;6285;48.804;9.220;2024-01-27T00:20:50;7.43;;;4.35;;
12441;SDS011;6285;48.804;9.220;2024-01-27T00:23:22;9.20;;;4.57;;
12441;SDS011;6285;48.804;9.220;2024-01-27T00:26:17;10.10;;;5.53;;
12441;SDS011;6285;48.804;9.220;2024-01-27T00:29:06;9.90;;;6.00;;
12441;SDS011;6285;48.804;9.220;2024-01-27T00:32:02;10.48;;;5.45;;
12441;SDS011;6285;48.804;9.220;2024-01-27T00:37:17;11.13;;;5.30;;
12441;SDS011;6285;48.804;9.220;2024-01-27T00:39:52;8.48;;;4.97;;
12441;SDS011;6285;48.804;9.220;2024-01-27T00:42:30;13.23;;;6.00;;
12441;SDS011;6285;48.804;9.220;2024-01-27T00:45:23;12.18;;;6.80;;
12441;SDS011;6285;48.804;9.220;2024-01-27T00:48:03;15.27;;;7.03;;
12441;SDS011;6285;48.804;9.220;2024-01-27T00:50:52;15.70;;;8.05;;
12441;SDS011;6285;48.804;9.220;2024-01-27T00:53:37;13.82;;;7.18;;
12441;SDS011;6285;48.804;9.220;2024-01-27T00:59:31;13.35;;;6.15;;
12441;SDS011;6285;48.804;9.220;2024-01-27T01:02:12;10.90;;;5.53;;
12441;SDS011;6285;48.804;9.220;2024-01-27T01:05:02;11.50;;;5.07;;
12441;SDS011;6285;48.804;9.220;2024-01-27T01:07:52;9.82;;;5.35;;
12441;SDS011;6285;48.804;9.220;2024-01-27T01:10:33;8.20;;;5.05;;
12441;SDS011;6285;48.804;9.220;2024-01-27T01:13:19;9.45;;;5.45;;
12441;SDS011;6285;48.804;9.220;2024-01-27T01:15:50;19.65;;;8.13;;
12441;SDS011;6285;48.804;9.220;2024-01-27T01:18:24;19.20;;;9.27;;
12441;SDS011;6285;48.804;9.220;2024-01-27T01:21:02;19.92;;;9.40;;
12441;SDS011;6285;48.804;9.220;2024-01-27T01:26:15;15.98;;;7.60;;
12441;SDS011;6285;48.804;9.220;2024-01-27T01:29:04;9.57;;;5.43;;
12441;SDS011;6285;48.804;9.220;2024-01-27T01:31:48;11.10;;;5.07;;
12441;SDS011;6285;48.804;9.220;2024-01-27T01:34:41;12.38;;;6.13;;
12441;SDS011;6285;48.804;9.220;2024-01-27T01:43:10;9.63;;;5.03;;
12441;SDS011;6285;48.804;9.220;2024-01-27T01:45:47;10.82;;;5.30;;
12441;SDS011;6285;48.804;9.220;2024-01-27T01:48:28;9.60;;;5.45;;
12441;SDS011;6285;48.804;9.220;2024-01-27T01:51:15;10.13;;;5.07;;
12441;SDS011;6285;48.804;9.220;2024-01-27T01:53:58;9.65;;;4.40;;
12441;SDS011;6285;48.804;9.220;2024-01-27T01:56:30;12.63;;;4.30;;
12441;SDS011;6285;48.804;9.220;2024-01-27T01:59:25;10.48;;;4.70;;
12441;SDS011;6285;48.804;9.220;2024-01-27T02:02:02;9.38;;;3.88;;
12441;SDS011;6285;48.804;9.220;2024-01-27T02:04:46;8.45;;;3.53;;
12441;SDS011;6285;48.804;9.220;2024-01-27T02:07:32;7.65;;;3.78;;
12441;SDS011;6285;48.804;9.220;2024-01-27T02:10:17;5.47;;;3.70;;
12441;SDS011;6285;48.804;9.220;2024-01-27T02:13:01;7.15;;;3.60;;
12441;SDS011;6285;48.804;9.220;2024-01-27T02:15:32;6.78;;;3.72;;
12441;SDS011;6285;48.804;9.220;2024-01-27T02:18:25;11.60;;;3.90;;
12441;SDS011;6285;48.804;9.220;2024-01-27T02:21:06;8.48;;;4.10;;
12441;SDS011;6285;48.804;9.220;2024-01-27T02:23:56;6.78;;;3.53;;
12441;SDS011;6285;48.804;9.220;2024-01-27T02:26:48;5.78;;;3.85;;
12441;SDS011;6285;48.804;9.220;2024-01-27T02:29:30;6.22;;;4.07;;
12441;SDS011;6285;48.804;9.220;2024-01-27T02:35:04;8.93;;;3.70;;
12441;SDS011;6285;48.804;9.220;2024-01-27T02:37:43;8.20;;;4.20;;
12441;SDS011;6285;48.804;9.220;2024-01-27T02:40:35;6.57;;;4.13;;
12441;SDS011;6285;48.804;9.220;2024-01-27T02:43:22;5.20;;;3.67;;
12441;SDS011;6285;48.804;9.220;2024-01-27T02:45:55;10.45;;;3.92;;
12441;SDS011;6285;48.804;9.220;2024-01-27T02:48:31;5.65;;;4.00;;
12441;SDS011;6285;48.804;9.220;2024-01-27T02:51:11;6.53;;;3.88;;
12441;SDS011;6285;48.804;9.220;2024-01-27T02:53:58;9.40;;;4.30;;
12441;SDS011;6285;48.804;9.220;2024-01-27T02:56:32;9.85;;;4.22;;
12441;SDS011;6285;48.804;9.220;2024-01-27T02:59:11;7.68;;;3.83;;
12441;SDS011;6285;48.804;9.220;2024-01-27T03:01:56;8.60;;;4.20;;
12441;SDS011;6285;48.804;9.220;2024-01-27T03:04:36;7.50;;;4.43;;
12441;SDS011;6285;48.804;9.220;2024-01-27T03:07:06;8.15;;;4.30;;
12441;SDS011;6285;48.804;9.220;2024-01-27T03:09:39;7.45;;;3.92;;
12441;SDS011;6285;48.804;9.220;2024-01-27T03:12:14;9.07;;;3.92;;
12441;SDS011;6285;48.804;9.220;2024-01-27T03:14:54;6.70;;;3.88;;
12441;SDS011;6285;48.804;9.220;2024-01-27T03:17:25;7.57;;;4.28;;
12441;SDS011;6285;48.804;9.220;2024-01-27T03:22:54;5.13;;;3.83;;
12441;SDS011;6285;48.804;9.220;2024-01-27T03:25:33;10.13;;;4.68;;
12441;SDS011;6285;48.804;9.220;2024-01-27T03:28:15;9.77;;;3.80;;
12441;SDS011;6285;48.804;9.220;2024-01-27T03:30:58;7.30;;;4.30;;
12441;SDS011;6285;48.804;9.220;2024-01-27T03:33:30;9.30;;;4.07;;
12441;SDS011;6285;48.804;9.220;2024-01-27T03:35:57;9.05;;;3.97;;
12441;SDS011;6285;48.804;9.220;2024-01-27T03:38:26;9.80;;;4.70;;
12441;SDS011;6285;48.804;9.220;2024-01-27T03:41:14;10.15;;;4.38;;
12441;SDS011;6285;48.804;9.220;2024-01-27T03:43:44;8.35;;;4.70;;
12441;SDS011;6285;48.804;9.220;2024-01-27T03:46:16;7.10;;;5.05;;
12441;SDS011;6285;48.804;9.220;2024-01-27T03:48:54;7.57;;;4.60;;
12441;SDS011;6285;48.804;9.220;2024-01-27T03:51:21;9.38;;;4.68;;
12441;SDS011;6285;48.804;9.220;2024-01-27T03:53:55;7.93;;;4.55;;
12441;SDS011;6285;48.804;9.220;2024-01-27T03:56:42;8.13;;;4.47;;
12441;SDS011;6285;48.804;9.220;2024-01-27T03:59:21;10.10;;;4.15;;
12441;SDS011;6285;48.804;9.220;2024-01-27T04:02:03;7.93;;;4.03;;
12441;SDS011;6285;48.804;9.220;2024-01-27T04:04:40;8.20;;;3.78;;
12441;SDS011;6285;48.804;9.220;2024-01-27T04:07:14;6.45;;;3.72;;
12441;SDS011;6285;48.804;9.220;2024-01-27T04:09:55;10.18;;;4.25;;
12441;SDS011;6285;48.804;9.220;2024-01-27T04:12:30;7.97;;;4.22;;
12441;SDS011;6285;48.804;9.220;2024-01-27T04:15:05;6.78;;;3.88;;
12441;SDS011;6285;48.804;9.220;2024-01-27T04:17:41;8.45;;;4.22;;
12441;SDS011;6285;48.804;9.220;2024-01-27T04:20:09;7.93;;;4.45;;
12441;SDS011;6285;48.804;9.220;2024-01-27T04:22:36;8.68;;;4.68;;
12441;SDS011;6285;48.804;9.220;2024-01-27T04:25:08;10.02;;;4.55;;
12441;SDS011;6285;48.804;9.220;2024-01-27T04:27:45;9.80;;;4.90;;
12441;SDS011;6285;48.804;9.220;2024-01-27T04:30:19;10.10;;;4.60;;
12441;SDS011;6285;48.804;9.220;2024-01-27T04:32:59;7.28;;;4.63;;
12441;SDS011;6285;48.804;9.220;2024-01-27T04:35:39;11.30;;;4.80;;
12441;SDS011;6285;48.804;9.220;2024-01-27T04:38:30;7.22;;;4.55;;
12441;SDS011;6285;48.804;9.220;2024-01-27T04:41:01;5.28;;;4.10;;
12441;SDS011;6285;48.804;9.220;2024-01-27T04:43:38;6.95;;;4.10;;
12441;SDS011;6285;48.804;9.220;2024-01-27T04:46:12;7.45;;;4.22;;
12441;SDS011;6285;48.804;9.220;2024-01-27T04:48:50;7.43;;;4.55;;
12441;SDS011;6285;48.804;9.220;2024-01-27T04:54:37;8.82;;;4.90;;
12441;SDS011;6285;48.804;9.220;2024-01-27T04:57:33;8.15;;;4.78;;
12441;SDS011;6285;48.804;9.220;2024-01-27T05:00:28;9.18;;;4.60;;
12441;SDS011;6285;48.804;9.220;2024-01-27T05:03:15;13.93;;;5.05;;
12441;SDS011;6285;48.804;9.220;2024-01-27T05:05:53;7.60;;;4.43;;
12441;SDS011;6285;48.804;9.220;2024-01-27T05:08:30;7.90;;;4.60;;
12441;SDS011;6285;48.804;9.220;2024-01-27T05:11:00;7.47;;;4.75;;
12441;SDS011;6285;48.804;9.220;2024-01-27T05:13:32;11.32;;;4.70;;
12441;SDS011;6285;48.804;9.220;2024-01-27T05:16:16;10.77;;;4.93;;
12441;SDS011;6285;48.804;9.220;2024-01-27T05:18:55;10.45;;;4.80;;
12441;SDS011;6285;48.804;9.220;2024-01-27T05:21:32;8.45;;;5.03;;
12441;SDS011;6285;48.804;9.220;2024-01-27T05:24:16;8.93;;;4.57;;
12441;SDS011;6285;48.804;9.220;2024-01-27T05:27:06;8.60;;;4.78;;
12441;SDS011;6285;48.804;9.220;2024-01-27T05:29:40;8.38;;;5.10;;
12441;SDS011;6285;48.804;9.220;2024-01-27T05:32:26;9.63;;;5.00;;
12441;SDS011;6285;48.804;9.220;2024-01-27T05:35:07;8.90;;;5.40;;
12441;SDS011;6285;48.804;9.220;2024-01-27T05:37:39;8.15;;;5.10;;
12441;SDS011;6285;48.804;9.220;2024-01-27T05:40:21;9.18;;;5.35;;
12441;SDS011;6285;48.804;9.220;2024-01-27T05:43:05;9.43;;;5.53;;
12441;SDS011;6285;48.804;9.220;2024-01-27T05:45:40;12.20;;;5.68;;
12441;SDS011;6285;48.804;9.220;2024-01-27T05:48:27;8.90;;;6.05;;
12441;SDS011;6285;48.804;9.220;2024-01-27T05:51:00;11.63;;;5.60;;
12441;SDS011;6285;48.804;9.220;2024-01-27T05:53:34;13.25;;;5.72;;
12441;SDS011;6285;48.804;9.220;2024-01-27T05:56:09;8.05;;;5.57;;
12441;SDS011;6285;48.804;9.220;2024-01-27T05:58:48;16.65;;;6.70;;
12441;SDS011;6285;48.804;9.220;2024-01-27T06:04:07;8.68;;;5.82;;
12441;SDS011;6285;48.804;9.220;2024-01-27T06:06:37;9.05;;;5.72;;
12441;SDS011;6285;48.804;9.220;2024-01-27T06:09:12;10.85;;;6.85;;
12441;SDS011;6285;48.804;9.220;2024-01-27T06:11:51;11.25;;;6.13;;
12441;SDS011;6285;48.804;9.220;2024-01-27T06:14:31;10.40;;;5.80;;
12441;SDS011;6285;48.804;9.220;2024-01-27T06:17:28;7.85;;;4.88;;
12441;SDS011;6285;48.804;9.220;2024-01-27T06:20:13;8.15;;;5.43;;
12441;SDS011;6285;48.804;9.220;2024-01-27T06:23:05;9.15;;;5.55;;
12441;SDS011;6285;48.804;9.220;2024-01-27T06:26:09;11.75;;;6.00;;
12441;SDS011;6285;48.804;9.220;2024-01-27T06:28:48;9.07;;;5.60;;
12441;SDS011;6285;48.804;9.220;2024-01-27T06:31:18;11.82;;;5.68;;
12441;SDS011;6285;48.804;9.220;2024-01-27T06:33:54;7.65;;;5.18;;
12441;SDS011;6285;48.804;9.220;2024-01-27T06:36:22;7.35;;;5.05;;
12441;SDS011;6285;48.804;9.220;2024-01-27T06:38:54;8.18;;;5.32;;
12441;SDS011;6285;48.804;9.220;2024-01-27T06:41:30;9.93;;;5.68;;
12441;SDS011;6285;48.804;9.220;2024-01-27T06:49:37;10.13;;;5.10;;
12441;SDS011;6285;48.804;9.220;2024-01-27T06:52:07;10.25;;;6.55;;
12441;SDS011;6285;48.804;9.220;2024-01-27T06:54:34;9.77;;;5.65;;
12441;SDS011;6285;48.804;9.220;2024-01-27T06:57:19;8.55;;;5.03;;
12441;SDS011;6285;48.804;9.220;2024-01-27T07:00:18;6.32;;;5.03;;
12441;SDS011;6285;48.804;9.220;2024-01-27T07:02:50;8.77;;;6.03;;
12441;SDS011;6285;48.804;9.220;2024-01-27T07:05:20;12.00;;;6.60;;
12441;SDS011;6285;48.804;9.220;2024-01-27T07:08:03;9.88;;;6.05;;
12441;SDS011;6285;48.804;9.220;2024-01-27T07:10:38;8.45;;;6.13;;
12441;SDS011;6285;48.804;9.220;2024-01-27T07:13:07;9.30;;;5.68;;
12441;SDS011;6285;48.804;9.220;2024-01-27T07:15:36;12.00;;;6.93;;
12441;SDS011;6285;48.804;9.220;2024-01-27T07:18:12;8.93;;;5.68;;
12441;SDS011;6285;48.804;9.220;2024-01-27T07:20:49;10.35;;;6.10;;
12441;SDS011;6285;48.804;9.220;2024-01-27T07:26:12;10.50;;;5.80;;
12441;SDS011;6285;48.804;9.220;2024-01-27T07:34:42;8.15;;;5.70;;
12441;SDS011;6285;48.804;9.220;2024-01-27T07:37:27;8.75;;;5.35;;
12441;SDS011;6285;48.804;9.220;2024-01-27T07:40:04;14.68;;;6.75;;
12441;SDS011;6285;48.804;9.220;2024-01-27T07:42:33;10.95;;;5.68;;
12441;SDS011;6285;48.804;9.220;2024-01-27T07:45:03;10.40;;;5.82;;
12441;SDS011;6285;48.804;9.220;2024-01-27T07:47:33;9.70;;;5.35;;
12441;SDS011;6285;48.804;9.220;2024-01-27T07:50:05;9.25;;;5.63;;
12441;SDS011;6285;48.804;9.220;2024-01-27T07:52:37;8.90;;;5.53;;
12441;SDS011;6285;48.804;9.220;2024-01-27T07:55:14;9.05;;;5.65;;
12441;SDS011;6285;48.804;9.220;2024-01-27T07:57:42;8.40;;;5.05;;
12441;SDS011;6285;48.804;9.220;2024-01-27T08:00:09;13.40;;;6.35;;
12441;SDS011;6285;48.804;9.220;2024-01-27T08:02:43;9.35;;;5.47;;
12441;SDS011;6285;48.804;9.220;2024-01-27T08:05:18;8.82;;;6.05;;
12441;SDS011;6285;48.804;9.220;2024-01-27T08:07:48;8.50;;;5.70;;
12441;SDS011;6285;48.804;9.220;2024-01-27T08:10:18;9.80;;;6.03;;
12441;SDS011;6285;48.804;9.220;2024-01-27T08:12:45;8.20;;;5.93;;
12441;SDS011;6285;48.804;9.220;2024-01-27T08:15:19;8.63;;;5.68;;
12441;SDS011;6285;48.804;9.220;2024-01-27T08:17:48;11.70;;;5.80;;
12441;SDS011;6285;48.804;9.220;2024-01-27T08:20:25;8.80;;;5.22;;
12441;SDS011;6285;48.804;9.220;2024-01-27T08:22:52;11.00;;;5.20;;
12441;SDS011;6285;48.804;9.220;2024-01-27T08:25:23;10.32;;;5.10;;
12441;SDS011;6285;48.804;9.220;2024-01-27T08:28:01;6.43;;;4.60;;
12441;SDS011;6285;48.804;9.220;2024-01-27T08:30:44;7.35;;;4.53;;
12441;SDS011;6285;48.804;9.220;2024-01-27T08:36:33;6.30;;;4.55;;
12441;SDS011;6285;48.804;9.220;2024-01-27T08:45:29;7.13;;;4.53;;
12441;SDS011;6285;48.804;9.220;2024-01-27T08:48:54;6.25;;;4.07;;
12441;SDS011;6285;48.804;9.220;2024-01-27T08:51:29;8.32;;;4.40;;
12441;SDS011;6285;48.804;9.220;2024-01-27T08:55:33;5.28;;;4.30;;
12441;SDS011;6285;48.804;9.220;2024-01-27T09:22:11;5.63;;;3.88;;
12441;SDS011;6285;48.804;9.220;2024-01-27T09:24:38;7.20;;;4.25;;
12441;SDS011;6285;48.804;9.220;2024-01-27T09:27:05;7.32;;;4.13;;
12441;SDS011;6285;48.804;9.220;2024-01-27T09:29:34;8.30;;;4.05;;
12441;SDS011;6285;48.804;9.220;2024-01-27T09:32:02;5.97;;;3.70;;
12441;SDS011;6285;48.804;9.220;2024-01-27T09:34:29;5.88;;;3.50;;
12441;SDS011;6285;48.804;9.220;2024-01-27T09:36:56;7.47;;;4.00;;
12441;SDS011;6285;48.804;9.220;2024-01-27T09:39:24;6.75;;;3.85;;
12441;SDS011;6285;48.804;9.220;2024-01-27T09:41:51;6.85;;;4.00;;
12441;SDS011;6285;48.804;9.220;2024-01-27T09:44:20;6.35;;;4.28;;
12441;SDS011;6285;48.804;9.220;2024-01-27T09:46:47;6.60;;;4.55;;
12441;SDS011;6285;48.804;9.220;2024-01-27T09:49:14;6.05;;;3.92;;
12441;SDS011;6285;48.804;9.220;2024-01-27T09:51:41;8.30;;;3.92;;
12441;SDS011;6285;48.804;9.220;2024-01-27T09:54:08;7.10;;;3.60;;
12441;SDS011;6285;48.804;9.220;2024-01-27T09:56:37;10.30;;;4.20;;
12441;SDS011;6285;48.804;9.220;2024-01-27T09:59:05;5.35;;;4.07;;
12441;SDS011;6285;48.804;9.220;2024-01-27T10:01:32;7.97;;;3.70;;
12441;SDS011;6285;48.804;9.220;2024-01-27T10:04:00;7.32;;;4.22;;
12441;SDS011;6285;48.804;9.220;2024-01-27T10:06:27;5.93;;;3.75;;
12441;SDS011;6285;48.804;9.220;2024-01-27T10:08:54;7.13;;;4.03;;
12441;SDS011;6285;48.804;9.220;2024-01-27T10:11:22;5.38;;;3.92;;
12441;SDS011;6285;48.804;9.220;2024-01-27T10:13:57;6.95;;;3.90;;
12441;SDS011;6285;48.804;9.220;2024-01-27T10:16:26;8.40;;;4.38;;
12441;SDS011;6285;48.804;9.220;2024-01-27T10:18:59;8.43;;;4.30;;
12441;SDS011;6285;48.804;9.220;2024-01-27T10:21:27;5.95;;;4.30;;
12441;SDS011;6285;48.804;9.220;2024-01-27T10:23:54;6.25;;;3.85;;
12441;SDS011;6285;48.804;9.220;2024-01-27T10:26:21;5.78;;;3.80;;
12441;SDS011;6285;48.804;9.220;2024-01-27T10:28:54;9.10;;;4.20;;
12441;SDS011;6285;48.804;9.220;2024-01-27T10:31:27;5.93;;;4.00;;
12441;SDS011;6285;48.804;9.220;2024-01-27T10:33:54;7.32;;;3.95;;
12441;SDS011;6285;48.804;9.220;2024-01-27T10:36:22;7.18;;;4.20;;
12441;SDS011;6285;48.804;9.220;2024-01-27T10:38:49;8.15;;;3.70;;
12441;SDS011;6285;48.804;9.220;2024-01-27T10:41:19;7.82;;;3.67;;
12441;SDS011;6285;48.804;9.220;2024-01-27T10:43:48;5.97;;;3.40;;
12441;SDS011;6285;48.804;9.220;2024-01-27T10:46:17;8.38;;;3.50;;
12441;SDS011;6285;48.804;9.220;2024-01-27T10:48:48;7.22;;;3.58;;
12441;SDS011;6285;48.804;9.220;2024-01-27T10:51:17;7.65;;;3.83;;
12441;SDS011;6285;48.804;9.220;2024-01-27T10:53:48;6.80;;;3.55;;
12441;SDS011;6285;48.804;9.220;2024-01-27T10:56:16;6.22;;;2.60;;
12441;SDS011;6285;48.804;9.220;2024-01-27T10:58:44;7.53;;;3.30;;
12441;SDS011;6285;48.804;9.220;2024-01-27T11:01:14;5.05;;;3.13;;
12441;SDS011;6285;48.804;9.220;2024-01-27T11:03:44;7.18;;;3.20;;
12441;SDS011;6285;48.804;9.220;2024-01-27T11:06:12;7.20;;;2.67;;
12441;SDS011;6285;48.804;9.220;2024-01-27T11:08:40;6.20;;;3.05;;
12441;SDS011;6285;48.804;9.220;2024-01-27T11:11:07;8.50;;;3.40;;
12441;SDS011;6285;48.804;9.220;2024-01-27T11:13:34;9.20;;;3.40;;
12441;SDS011;6285;48.804;9.220;2024-01-27T11:16:02;8.07;;;3.25;;
12441;SDS011;6285;48.804;9.220;2024-01-27T11:18:31;9.05;;;3.63;;
12441;SDS011;6285;48.804;9.220;2024-01-27T11:20:58;7.95;;;3.80;;
12441;SDS011;6285;48.804;9.220;2024-01-27T11:23:32;13.07;;;3.83;;
12441;SDS011;6285;48.804;9.220;2024-01-27T11:26:04;6.40;;;3.75;;
12441;SDS011;6285;48.804;9.220;2024-01-27T11:28:31;9.95;;;3.67;;
12441;SDS011;6285;48.804;9.220;2024-01-27T11:30:58;7.90;;;3.85;;
12441;SDS011;6285;48.804;9.220;2024-01-27T11:33:29;10.85;;;4.07;;
12441;SDS011;6285;48.804;9.220;2024-01-27T11:36:00;9.43;;;4.72;;
12441;SDS011;6285;48.804;9.220;2024-01-27T11:38:28;12.15;;;4.63;;
12441;SDS011;6285;48.804;9.220;2024-01-27T11:40:56;9.10;;;4.13;;
12441;SDS011;6285;48.804;9.220;2024-01-27T11:43:27;9.77;;;4.60;;
12441;SDS011;6285;48.804;9.220;2024-01-27T11:45:54;8.82;;;5.43;;
12441;SDS011;6285;48.804;9.220;2024-01-27T11:48:22;9.18;;;4.00;;
12441;SDS011;6285;48.804;9.220;2024-01-27T11:50:59;8.68;;;4.40;;
12441;SDS011;6285;48.804;9.220;2024-01-27T11:53:29;14.05;;;7.63;;
12441;SDS011;6285;48.804;9.220;2024-01-27T11:55:57;10.00;;;4.85;;
12441;SDS011;6285;48.804;9.220;2024-01-27T11:58:26;10.68;;;4.53;;
12441;SDS011;6285;48.804;9.220;2024-01-27T12:00:53;12.32;;;4.47;;
12441;SDS011;6285;48.804;9.220;2024-01-27T12:03:20;15.93;;;6.13;;
12441;SDS011;6285;48.804;9.220;2024-01-27T12:05:47;16.30;;;6.20;;
12441;SDS011;6285;48.804;9.220;2024-01-27T12:08:16;13.95;;;6.03;;
12441;SDS011;6285;48.804;9.220;2024-01-27T12:10:43;12.10;;;6.38;;
12441;SDS011;6285;48.804;9.220;2024-01-27T12:13:12;6.80;;;3.40;;
12441;SDS011;6285;48.804;9.220;2024-01-27T12:15:39;11.25;;;5.10;;
12441;SDS011;6285;48.804;9.220;2024-01-27T12:18:06;8.32;;;3.65;;
12441;SDS011;6285;48.804;9.220;2024-01-27T12:20:33;9.55;;;3.28;;
12441;SDS011;6285;48.804;9.220;2024-01-27T12:23:04;8.20;;;3.88;;
12441;SDS011;6285;48.804;9.220;2024-01-27T12:25:31;11.38;;;4.40;;
12441;SDS011;6285;48.804;9.220;2024-01-27T12:28:01;8.57;;;3.35;;
12441;SDS011;6285;48.804;9.220;2024-01-27T12:30:29;8.70;;;4.05;;
12441;SDS011;6285;48.804;9.220;2024-01-27T12:33:01;8.43;;;4.70;;
12441;SDS011;6285;48.804;9.220;2024-01-27T12:35:28;6.38;;;4.50;;
12441;SDS011;6285;48.804;9.220;2024-01-27T12:37:55;10.20;;;4.30;;
12441;SDS011;6285;48.804;9.220;2024-01-27T12:40:23;7.25;;;3.85;;
12441;SDS011;6285;48.804;9.220;2024-01-27T12:42:50;7.35;;;3.90;;
12441;SDS011;6285;48.804;9.220;2024-01-27T12:45:17;9.13;;;3.83;;
12441;SDS011;6285;48.804;9.220;2024-01-27T12:47:46;13.23;;;4.28;;
12441;SDS011;6285;48.804;9.220;2024-01-27T12:50:13;8.27;;;3.72;;
12441;SDS011;6285;48.804;9.220;2024-01-27T12:52:43;6.32;;;3.60;;
12441;SDS011;6285;48.804;9.220;2024-01-27T12:55:10;9.63;;;4.13;;
12441;SDS011;6285;48.804;9.220;2024-01-27T12:57:37;7.25;;;3.55;;
12441;SDS011;6285;48.804;9.220;2024-01-27T13:00:05;7.90;;;3.67;;
12441;SDS011;6285;48.804;9.220;2024-01-27T13:02:35;8.88;;;4.45;;
12441;SDS011;6285;48.804;9.220;2024-01-27T13:05:07;8.10;;;3.83;;
12441;SDS011;6285;48.804;9.220;2024-01-27T13:07:34;9.75;;;4.18;;
12441;SDS011;6285;48.804;9.220;2024-01-27T13:10:01;8.52;;;3.80;;
12441;SDS011;6285;48.804;9.220;2024-01-27T13:12:28;10.10;;;4.47;;
12441;SDS011;6285;48.804;9.220;2024-01-27T13:14:55;5.55;;;3.70;;
12441;SDS011;6285;48.804;9.220;2024-01-27T13:17:22;9.63;;;3.78;;
12441;SDS011;6285;48.804;9.220;2024-01-27T13:19:50;12.60;;;4.30;;
12441;SDS011;6285;48.804;9.220;2024-01-27T13:22:18;8.60;;;4.40;;
12441;SDS011;6285;48.804;9.220;2024-01-27T13:24:49;7.32;;;4.03;;
12441;SDS011;6285;48.804;9.220;2024-01-27T13:27:16;8.80;;;4.28;;
12441;SDS011;6285;48.804;9.220;2024-01-27T13:29:43;7.90;;;4.03;;
12441;SDS011;6285;48.804;9.220;2024-01-27T13:32:11;7.75;;;3.78;;
12441;SDS011;6285;48.804;9.220;2024-01-27T13:34:38;10.43;;;5.28;;
12441;SDS011;6285;48.804;9.220;2024-01-27T13:37:05;8.23;;;3.80;;
12441;SDS011;6285;48.804;9.220;2024-01-27T13:39:35;8.63;;;4.00;;
12441;SDS011;6285;48.804;9.220;2024-01-27T13:42:04;10.15;;;4.00;;
12441;SDS011;6285;48.804;9.220;2024-01-27T13:44:31;6.63;;;4.13;;
12441;SDS011;6285;48.804;9.220;2024-01-27T13:47:00;9.77;;;4.18;;
12441;SDS011;6285;48.804;9.220;2024-01-27T13:49:29;7.50;;;4.07;;
12441;SDS011;6285;48.804;9.220;2024-01-27T13:51:56;9.45;;;4.50;;
12441;SDS011;6285;48.804;9.220;2024-01-27T13:54:23;8.73;;;4.00;;
12441;SDS011;6285;48.804;9.220;2024-01-27T13:56:52;8.10;;;4.00;;
12441;SDS011;6285;48.804;9.220;2024-01-27T13:59:19;7.40;;;4.03;;
12441;SDS011;6285;48.804;9.220;2024-01-27T14:01:46;6.70;;;4.03;;
12441;SDS011;6285;48.804;9.220;2024-01-27T14:04:14;10.18;;;4.07;;
12441;SDS011;6285;48.804;9.220;2024-01-27T14:06:41;5.88;;;3.70;;
12441;SDS011;6285;48.804;9.220;2024-01-27T14:09:08;11.10;;;4.00;;
12441;SDS011;6285;48.804;9.220;2024-01-27T14:11:35;7.63;;;3.88;;
12441;SDS011;6285;48.804;9.220;2024-01-27T14:14:03;9.10;;;3.90;;
12441;SDS011;6285;48.804;9.220;2024-01-27T14:16:31;9.05;;;4.30;;
12441;SDS011;6285;48.804;9.220;2024-01-27T14:18:58;9.73;;;4.00;;
12441;SDS011;6285;48.804;9.220;2024-01-27T14:21:25;7.50;;;3.63;;
12441;SDS011;6285;48.804;9.220;2024-01-27T14:23:53;9.02;;;4.20;;
12441;SDS011;6285;48.804;9.220;2024-01-27T14:26:25;7.57;;;4.00;;
12441;SDS011;6285;48.804;9.220;2024-01-27T14:28:53;8.02;;;4.15;;
12441;SDS011;6285;48.804;9.220;2024-01-27T14:31:22;9.52;;;3.95;;
12441;SDS011;6285;48.804;9.220;2024-01-27T14:33:49;7.40;;;4.55;;
12441;SDS011;6285;48.804;9.220;2024-01-27T14:36:16;10.88;;;4.90;;
12441;SDS011;6285;48.804;9.220;2024-01-27T14:38:43;8.82;;;4.40;;
12441;SDS011;6285;48.804;9.220;2024-01-27T14:41:10;8.55;;;4.35;;
12441;SDS011;6285;48.804;9.220;2024-01-27T14:43:38;11.35;;;4.20;;
12441;SDS011;6285;48.804;9.220;2024-01-27T14:46:05;8.32;;;3.88;;
12441;SDS011;6285;48.804;9.220;2024-01-27T14:48:33;8.60;;;3.65;;
12441;SDS011;6285;48.804;9.220;2024-01-27T14:51:01;4.90;;;3.13;;
12441;SDS011;6285;48.804;9.220;2024-01-27T14:53:28;6.30;;;2.53;;
12441;SDS011;6285;48.804;9.220;2024-01-27T14:55:56;5.53;;;2.60;;
12441;SDS011;6285;48.804;9.220;2024-01-27T14:58:23;4.78;;;2.42;;
12441;SDS011;6285;48.804;9.220;2024-01-27T15:00:51;11.32;;;2.65;;
12441;SDS011;6285;48.804;9.220;2024-01-27T15:03:18;5.45;;;2.30;;
12441;SDS011;6285;48.804;9.220;2024-01-27T15:05:48;3.83;;;2.05;;
12441;SDS011;6285;48.804;9.220;2024-01-27T15:08:15;6.15;;;2.17;;
12441;SDS011;6285;48.804;9.220;2024-01-27T15:10:42;3.42;;;2.40;;
12441;SDS011;6285;48.804;9.220;2024-01-27T15:13:09;4.30;;;2.10;;
12441;SDS011;6285;48.804;9.220;2024-01-27T15:15:37;3.38;;;2.20;;
12441;SDS011;6285;48.804;9.220;2024-01-27T15:18:04;6.45;;;2.47;;
12441;SDS011;6285;48.804;9.220;2024-01-27T15:20:31;4.22;;;2.67;;
12441;SDS011;6285;48.804;9.220;2024-01-27T15:23:00;6.68;;;2.53;;
12441;SDS011;6285;48.804;9.220;2024-01-27T15:25:27;4.55;;;2.33;;
12441;SDS011;6285;48.804;9.220;2024-01-27T15:27:55;5.45;;;2.38;;
12441;SDS011;6285;48.804;9.220;2024-01-27T15:30:23;5.25;;;2.38;;
12441;SDS011;6285;48.804;9.220;2024-01-27T15:32:55;8.23;;;2.47;;
12441;SDS011;6285;48.804;9.220;2024-01-27T15:35:25;7.40;;;4.03;;
12441;SDS011;6285;48.804;9.220;2024-01-27T15:38:35;11.60;;;4.57;;
12441;SDS011;6285;48.804;9.220;2024-01-27T15:40:51;5.07;;;3.08;;
12441;SDS011;6285;48.804;9.220;2024-01-27T15:43:19;5.47;;;3.22;;
12441;SDS011;6285;48.804;9.220;2024-01-27T15:45:46;7.43;;;3.22;;
12441;SDS011;6285;48.804;9.220;2024-01-27T15:48:20;4.72;;;2.50;;
12441;SDS011;6285;48.804;9.220;2024-01-27T15:50:51;6.45;;;2.97;;
12441;SDS011;6285;48.804;9.220;2024-01-27T15:53:21;6.55;;;3.03;;
12441;SDS011;6285;48.804;9.220;2024-01-27T15:55:52;6.82;;;2.88;;
12441;SDS011;6285;48.804;9.220;2024-01-27T15:58:20;6.47;;;3.20;;
12441;SDS011;6285;48.804;9.220;2024-01-27T16:00:47;7.05;;;3.30;;
12441;SDS011;6285;48.804;9.220;2024-01-27T16:03:14;7.15;;;2.80;;
12441;SDS011;6285;48.804;9.220;2024-01-27T16:05:41;8.80;;;3.38;;
12441;SDS011;6285;48.804;9.220;2024-01-27T16:08:09;7.53;;;3.50;;
12441;SDS011;6285;48.804;9.220;2024-01-27T16:10:36;6.25;;;3.22;;
12441;SDS011;6285;48.804;9.220;2024-01-27T16:13:04;7.00;;;3.33;;
12441;SDS011;6285;48.804;9.220;2024-01-27T16:15:32;8.32;;;3.33;;
12441;SDS011;6285;48.804;9.220;2024-01-27T16:18:01;8.98;;;3.28;;
12441;SDS011;6285;48.804;9.220;2024-01-27T16:20:28;12.52;;;3.88;;
12441;SDS011;6285;48.804;9.220;2024-01-27T16:22:55;8.73;;;3.53;;
12441;SDS011;6285;48.804;9.220;2024-01-27T16:25:23;9.98;;;3.70;;
12441;SDS011;6285;48.804;9.220;2024-01-27T16:27:50;10.63;;;3.80;;
12441;SDS011;6285;48.804;9.220;2024-01-27T16:30:19;10.20;;;4.05;;
12441;SDS011;6285;48.804;9.220;2024-01-27T16:32:46;11.23;;;4.82;;
12441;SDS011;6285;48.804;9.220;2024-01-27T16:35:13;11.30;;;4.00;;
12441;SDS011;6285;48.804;9.220;2024-01-27T16:37:40;9.45;;;3.75;;
12441;SDS011;6285;48.804;9.220;2024-01-27T16:40:08;9.20;;;3.80;;
12441;SDS011;6285;48.804;9.220;2024-01-27T16:42:35;8.27;;;3.78;;
12441;SDS011;6285;48.804;9.220;2024-01-27T16:45:02;8.77;;;3.60;;
12441;SDS011;6285;48.804;9.220;2024-01-27T16:47:33;6.15;;;3.75;;
12441;SDS011;6285;48.804;9.220;2024-01-27T16:50:00;9.18;;;4.20;;
12441;SDS011;6285;48.804;9.220;2024-01-27T16:52:28;9.10;;;4.03;;
12441;SDS011;6285;48.804;9.220;2024-01-27T16:54:56;5.93;;;3.90;;
12441;SDS011;6285;48.804;9.220;2024-01-27T16:57:25;10.57;;;4.18;;
12441;SDS011;6285;48.804;9.220;2024-01-27T16:59:56;10.20;;;4.10;;